Bartonsville, PA (18321)

12:11 PM EST on November 27, 2014 (GMT -0500)
Pocono Laurel Lake | Change Station
CLOSE
Current Station
Personal Weather Station
Location: Bartonsville, PA
Elevation: 899 ft
Nearby Weather Stations

Elev 899 ft 41.02 °N, 75.28 °W | Updated 13 minutes ago

Overcast
Overcast
36.3 °F
Feels Like 36 °F
N
0.0
Wind Variable Wind from SE

Today
High -- | Low -- °F
--% Chance of Precip.
Yesterday
High -- | Low -- °F
Precip. -- in
7:02 AM 4:34 PM
Waxing Crescent, 31% visible
Pressure 29.99 in
Visibility 9.0 miles
Clouds Scattered Clouds 1500 ft
Overcast 6000 ft
Windchill 36 °F
Dew Point 32 °F
Humidity 85%
Rainfall 0.00 in
Snow Depth Not available.
UV 1 out of 12
Pollen .10 out of 12
Air Quality Not available.
Flu Activity Not available.
METAR KMPO 271653Z AUTO 33010G18KT 9SM UP SCT015 OVC060 M02/M06 A2992 RMK AO2 UPB49SNE49 SLP153 P0000 T10221056

More Conditions Fewer Conditions

Pressure 29.99 in
Visibility 9.0 miles
Clouds Scattered Clouds 1500 ft
Overcast 6000 ft
Windchill 36 °F
Dew Point 32 °F
Humidity 85%
Rainfall 0.00 in
Snow Depth Not available.
UV 1 out of 12
Pollen .10 out of 12
Air Quality Not available.
Flu Activity Not available.
METAR KMPO 271653Z AUTO 33010G18KT 9SM UP SCT015 OVC060 M02/M06 A2992 RMK AO2 UPB49SNE49 SLP153 P0000 T10221056

More Conditions Fewer Conditions

Nowcast | as of 10:23 am EST on November 27, 2014

An area of light snow will continue to affect portions of northeastern Pennsylvania, as well as northern and central New Jersey. Little to no snow accumulations is expected for most areas, although a light dusting may occur with the heaviest showers. Drivers are urged to use caution and be alert for changing weather conditions and roadway conditions.

×

10-Day Weather Forecast

Almanac

Astronomy

Nov. 27, 2014 Rise Set
Actual Time
Civil Twilight
Nautical Twilight
Astronomical Twilight
Moon
Length of Visible Light
Length of Day
Tomorrow will be .
, % of the Moon is Illuminated

Today's Extremes

State Highs State Lows

Community

WunderPhotos

Upload Photos

1,774,046 photos uploaded!

WunderBlogs® & News

Nearby

Air Quality

  Air Quality AQ Index Pollutant
Not available.

Snow Depth

Station Depth Elevation

Earthquake Activity

City Distance Mag. Time & Date
Minimum magnitude displayed is 2.5.

Coastal Water Temperatures

Place Temperature

Nearby Weather Stations